sensor_id;sensor_type;location;lat;lon;timestamp;pressure;altitude;pressure_sealevel;temperature;humidity
30875;BME280;17581;43.222;27.924;2023-03-14T00:01:22;101265.09;;;6.22;61.77
30875;BME280;17581;43.222;27.924;2023-03-14T00:03:48;101271.34;;;6.21;62.16
30875;BME280;17581;43.222;27.924;2023-03-14T00:06:14;101261.47;;;6.23;62.01
30875;BME280;17581;43.222;27.924;2023-03-14T00:08:41;101256.69;;;6.30;62.10
30875;BME280;17581;43.222;27.924;2023-03-14T00:11:13;101243.38;;;6.28;61.84
30875;BME280;17581;43.222;27.924;2023-03-14T00:13:39;101244.50;;;6.24;61.99
30875;BME280;17581;43.222;27.924;2023-03-14T00:16:10;101255.53;;;6.34;61.76
30875;BME280;17581;43.222;27.924;2023-03-14T00:18:36;101244.13;;;6.15;61.64
30875;BME280;17581;43.222;27.924;2023-03-14T00:21:04;101248.78;;;6.11;62.06
30875;BME280;17581;43.222;27.924;2023-03-14T00:23:31;101241.59;;;6.12;62.38
30875;BME280;17581;43.222;27.924;2023-03-14T00:26:01;101243.13;;;6.17;62.38
30875;BME280;17581;43.222;27.924;2023-03-14T00:28:28;101237.94;;;6.14;62.14
30875;BME280;17581;43.222;27.924;2023-03-14T00:30:53;101236.63;;;6.21;62.29
30875;BME280;17581;43.222;27.924;2023-03-14T00:33:19;101223.78;;;6.12;62.08
30875;BME280;17581;43.222;27.924;2023-03-14T00:36:02;101217.06;;;6.05;61.99
30875;BME280;17581;43.222;27.924;2023-03-14T00:38:31;101214.06;;;5.94;62.71
30875;BME280;17581;43.222;27.924;2023-03-14T00:40:56;101206.06;;;5.94;62.91
30875;BME280;17581;43.222;27.924;2023-03-14T00:43:22;101200.56;;;5.97;62.73
30875;BME280;17581;43.222;27.924;2023-03-14T00:45:51;101206.78;;;5.97;62.64
30875;BME280;17581;43.222;27.924;2023-03-14T00:48:18;101189.88;;;5.97;62.77
30875;BME280;17581;43.222;27.924;2023-03-14T00:50:44;101195.72;;;5.88;62.41
30875;BME280;17581;43.222;27.924;2023-03-14T00:53:10;101190.66;;;5.82;62.67
30875;BME280;17581;43.222;27.924;2023-03-14T00:55:39;101182.06;;;5.77;62.59
30875;BME280;17581;43.222;27.924;2023-03-14T00:58:06;101186.78;;;5.72;63.06
30875;BME280;17581;43.222;27.924;2023-03-14T01:00:31;101185.03;;;5.71;63.10
30875;BME280;17581;43.222;27.924;2023-03-14T01:02:57;101177.97;;;5.70;63.29
30875;BME280;17581;43.222;27.924;2023-03-14T01:05:23;101181.97;;;5.78;63.51
30875;BME280;17581;43.222;27.924;2023-03-14T01:07:48;101178.78;;;5.72;63.82
30875;BME280;17581;43.222;27.924;2023-03-14T01:10:14;101176.28;;;5.69;64.14
30875;BME280;17581;43.222;27.924;2023-03-14T01:12:40;101173.50;;;5.70;64.11
30875;BME280;17581;43.222;27.924;2023-03-14T01:15:06;101180.41;;;5.74;64.25
30875;BME280;17581;43.222;27.924;2023-03-14T01:17:31;101174.22;;;5.74;64.08
30875;BME280;17581;43.222;27.924;2023-03-14T01:19:57;101173.88;;;5.80;64.38
30875;BME280;17581;43.222;27.924;2023-03-14T01:22:22;101147.34;;;5.77;63.88
30875;BME280;17581;43.222;27.924;2023-03-14T01:24:48;101177.50;;;5.96;63.65
30875;BME280;17581;43.222;27.924;2023-03-14T01:27:13;101170.34;;;5.96;63.63
30875;BME280;17581;43.222;27.924;2023-03-14T01:29:39;101157.41;;;5.89;63.58
30875;BME280;17581;43.222;27.924;2023-03-14T01:32:04;101171.75;;;6.03;63.64
30875;BME280;17581;43.222;27.924;2023-03-14T01:34:30;101169.16;;;6.02;63.25
30875;BME280;17581;43.222;27.924;2023-03-14T01:36:55;101172.78;;;6.01;63.27
30875;BME280;17581;43.222;27.924;2023-03-14T01:39:20;101158.16;;;6.08;63.23
30875;BME280;17581;43.222;27.924;2023-03-14T01:41:46;101160.72;;;6.10;62.87
30875;BME280;17581;43.222;27.924;2023-03-14T01:44:12;101172.28;;;6.10;62.92
30875;BME280;17581;43.222;27.924;2023-03-14T01:46:39;101172.97;;;6.14;62.59
30875;BME280;17581;43.222;27.924;2023-03-14T01:52:03;101176.50;;;6.14;62.56
30875;BME280;17581;43.222;27.924;2023-03-14T01:54:37;101157.34;;;6.06;62.34
30875;BME280;17581;43.222;27.924;2023-03-14T01:59:37;101170.81;;;6.05;62.22
30875;BME280;17581;43.222;27.924;2023-03-14T02:02:05;101165.88;;;5.97;62.46
30875;BME280;17581;43.222;27.924;2023-03-14T02:04:36;101181.88;;;5.97;62.52
30875;BME280;17581;43.222;27.924;2023-03-14T02:07:17;101171.19;;;5.97;62.70
30875;BME280;17581;43.222;27.924;2023-03-14T02:09:44;101164.31;;;5.93;62.82
30875;BME280;17581;43.222;27.924;2023-03-14T02:12:11;101161.16;;;6.02;62.70
30875;BME280;17581;43.222;27.924;2023-03-14T02:14:39;101150.72;;;5.97;62.40
30875;BME280;17581;43.222;27.924;2023-03-14T02:17:06;101161.00;;;6.05;62.60
30875;BME280;17581;43.222;27.924;2023-03-14T02:22:25;101161.31;;;5.99;62.83
30875;BME280;17581;43.222;27.924;2023-03-14T02:27:29;101175.47;;;5.84;62.71
30875;BME280;17581;43.222;27.924;2023-03-14T02:29:58;101173.44;;;5.72;63.31
30875;BME280;17581;43.222;27.924;2023-03-14T02:32:26;101167.47;;;5.67;63.50
30875;BME280;17581;43.222;27.924;2023-03-14T02:34:56;101169.19;;;5.68;63.58
30875;BME280;17581;43.222;27.924;2023-03-14T02:37:27;101186.78;;;5.72;63.59
30875;BME280;17581;43.222;27.924;2023-03-14T02:39:54;101182.94;;;5.60;63.72
30875;BME280;17581;43.222;27.924;2023-03-14T02:42:20;101181.72;;;5.66;63.76
30875;BME280;17581;43.222;27.924;2023-03-14T02:47:37;101182.69;;;5.47;64.38
30875;BME280;17581;43.222;27.924;2023-03-14T02:50:19;101178.00;;;5.53;64.32
30875;BME280;17581;43.222;27.924;2023-03-14T02:52:45;101177.19;;;5.50;64.25
30875;BME280;17581;43.222;27.924;2023-03-14T02:55:11;101189.28;;;5.58;64.37
30875;BME280;17581;43.222;27.924;2023-03-14T02:57:36;101182.38;;;5.54;64.04
30875;BME280;17581;43.222;27.924;2023-03-14T03:00:03;101188.41;;;5.57;64.02
30875;BME280;17581;43.222;27.924;2023-03-14T03:02:32;101189.44;;;5.55;63.97
30875;BME280;17581;43.222;27.924;2023-03-14T03:04:57;101193.19;;;5.50;64.21
30875;BME280;17581;43.222;27.924;2023-03-14T03:07:24;101189.06;;;5.45;64.45
30875;BME280;17581;43.222;27.924;2023-03-14T03:09:49;101186.78;;;5.37;64.69
30875;BME280;17581;43.222;27.924;2023-03-14T03:12:14;101178.56;;;5.25;65.10
30875;BME280;17581;43.222;27.924;2023-03-14T03:14:40;101183.94;;;5.23;65.08
30875;BME280;17581;43.222;27.924;2023-03-14T03:17:05;101184.56;;;5.11;65.53
30875;BME280;17581;43.222;27.924;2023-03-14T03:19:32;101177.69;;;5.07;65.38
30875;BME280;17581;43.222;27.924;2023-03-14T03:21:58;101167.53;;;5.14;65.69
30875;BME280;17581;43.222;27.924;2023-03-14T03:24:24;101166.25;;;5.22;65.49
30875;BME280;17581;43.222;27.924;2023-03-14T03:26:49;101167.78;;;5.26;65.33
30875;BME280;17581;43.222;27.924;2023-03-14T03:29:15;101162.31;;;5.29;64.93
30875;BME280;17581;43.222;27.924;2023-03-14T03:31:40;101176.59;;;5.28;65.17
30875;BME280;17581;43.222;27.924;2023-03-14T03:34:06;101164.66;;;5.18;65.12
30875;BME280;17581;43.222;27.924;2023-03-14T03:36:31;101156.97;;;5.12;65.29
30875;BME280;17581;43.222;27.924;2023-03-14T03:38:57;101160.41;;;5.14;65.42
30875;BME280;17581;43.222;27.924;2023-03-14T03:41:22;101154.31;;;5.12;66.08
30875;BME280;17581;43.222;27.924;2023-03-14T03:43:48;101147.94;;;5.15;66.11
30875;BME280;17581;43.222;27.924;2023-03-14T03:46:14;101145.22;;;5.16;66.06
30875;BME280;17581;43.222;27.924;2023-03-14T03:48:39;101146.78;;;5.20;66.03
30875;BME280;17581;43.222;27.924;2023-03-14T03:51:05;101151.94;;;5.23;65.65
30875;BME280;17581;43.222;27.924;2023-03-14T03:53:31;101149.06;;;5.28;65.70
30875;BME280;17581;43.222;27.924;2023-03-14T03:55:56;101154.28;;;5.29;65.59
30875;BME280;17581;43.222;27.924;2023-03-14T03:58:21;101155.09;;;5.31;65.63
30875;BME280;17581;43.222;27.924;2023-03-14T04:00:47;101159.47;;;5.32;65.29
30875;BME280;17581;43.222;27.924;2023-03-14T04:03:12;101144.97;;;5.21;65.12
30875;BME280;17581;43.222;27.924;2023-03-14T04:05:38;101140.09;;;5.12;65.75
30875;BME280;17581;43.222;27.924;2023-03-14T04:08:03;101147.19;;;5.13;65.72
30875;BME280;17581;43.222;27.924;2023-03-14T04:10:29;101147.50;;;5.07;66.36
30875;BME280;17581;43.222;27.924;2023-03-14T04:12:54;101152.56;;;5.11;66.41
30875;BME280;17581;43.222;27.924;2023-03-14T04:15:20;101135.03;;;5.07;66.09
30875;BME280;17581;43.222;27.924;2023-03-14T04:17:45;101155.19;;;5.13;66.43
30875;BME280;17581;43.222;27.924;2023-03-14T04:20:11;101155.88;;;5.16;66.11
30875;BME280;17581;43.222;27.924;2023-03-14T04:22:38;101141.19;;;5.08;66.18
30875;BME280;17581;43.222;27.924;2023-03-14T04:25:04;101147.09;;;5.14;66.12
30875;BME280;17581;43.222;27.924;2023-03-14T04:27:30;101136.72;;;5.08;66.19
30875;BME280;17581;43.222;27.924;2023-03-14T04:29:55;101145.38;;;5.13;66.30
30875;BME280;17581;43.222;27.924;2023-03-14T04:32:21;101144.19;;;5.19;66.55
30875;BME280;17581;43.222;27.924;2023-03-14T04:34:46;101139.78;;;5.18;65.99
30875;BME280;17581;43.222;27.924;2023-03-14T04:37:12;101132.41;;;5.06;66.23
30875;BME280;17581;43.222;27.924;2023-03-14T04:39:38;101136.72;;;5.08;66.22
30875;BME280;17581;43.222;27.924;2023-03-14T04:42:03;101150.56;;;5.16;66.68
30875;BME280;17581;43.222;27.924;2023-03-14T04:44:29;101146.47;;;5.26;66.26
30875;BME280;17581;43.222;27.924;2023-03-14T04:46:54;101152.75;;;5.25;66.58
30875;BME280;17581;43.222;27.924;2023-03-14T04:49:19;101144.75;;;5.25;66.69
30875;BME280;17581;43.222;27.924;2023-03-14T04:51:45;101141.28;;;5.23;66.64
30875;BME280;17581;43.222;27.924;2023-03-14T04:54:10;101140.13;;;5.29;66.56
30875;BME280;17581;43.222;27.924;2023-03-14T04:56:36;101145.47;;;5.29;66.52
30875;BME280;17581;43.222;27.924;2023-03-14T04:59:03;101137.69;;;5.24;66.67
30875;BME280;17581;43.222;27.924;2023-03-14T05:01:28;101132.97;;;5.29;66.55
30875;BME280;17581;43.222;27.924;2023-03-14T05:03:54;101136.50;;;5.30;66.91
30875;BME280;17581;43.222;27.924;2023-03-14T05:06:19;101136.50;;;5.30;66.81
30875;BME280;17581;43.222;27.924;2023-03-14T05:08:45;101121.22;;;5.33;67.01
30875;BME280;17581;43.222;27.924;2023-03-14T05:11:11;101129.66;;;5.41;67.10
30875;BME280;17581;43.222;27.924;2023-03-14T05:13:38;101134.63;;;5.32;67.07
30875;BME280;17581;43.222;27.924;2023-03-14T05:16:05;101139.97;;;5.32;67.53
30875;BME280;17581;43.222;27.924;2023-03-14T05:18:31;101147.41;;;5.42;67.89
30875;BME280;17581;43.222;27.924;2023-03-14T05:20:57;101149.69;;;5.50;68.04
30875;BME280;17581;43.222;27.924;2023-03-14T05:23:22;101152.69;;;5.60;68.40
30875;BME280;17581;43.222;27.924;2023-03-14T05:25:48;101147.44;;;5.75;68.23
30875;BME280;17581;43.222;27.924;2023-03-14T05:28:13;101154.81;;;5.87;68.28
30875;BME280;17581;43.222;27.924;2023-03-14T05:30:39;101142.31;;;6.05;68.13
30875;BME280;17581;43.222;27.924;2023-03-14T05:33:05;101145.84;;;6.21;67.83
30875;BME280;17581;43.222;27.924;2023-03-14T05:35:30;101144.56;;;6.28;67.77
30875;BME280;17581;43.222;27.924;2023-03-14T05:37:56;101118.53;;;6.32;67.28
30875;BME280;17581;43.222;27.924;2023-03-14T05:40:21;101125.25;;;6.54;66.96
30875;BME280;17581;43.222;27.924;2023-03-14T05:42:47;101151.38;;;6.81;66.52
30875;BME280;17581;43.222;27.924;2023-03-14T05:45:12;101149.72;;;6.94;66.04
30875;BME280;17581;43.222;27.924;2023-03-14T05:47:39;101142.09;;;7.02;65.89
30875;BME280;17581;43.222;27.924;2023-03-14T05:50:04;101150.25;;;7.15;65.45
30875;BME280;17581;43.222;27.924;2023-03-14T05:52:30;101145.81;;;7.29;65.45
30875;BME280;17581;43.222;27.924;2023-03-14T05:54:55;101144.22;;;7.41;64.59
30875;BME280;17581;43.222;27.924;2023-03-14T05:57:21;101142.22;;;7.58;64.76
30875;BME280;17581;43.222;27.924;2023-03-14T05:59:46;101144.16;;;7.71;64.16
30875;BME280;17581;43.222;27.924;2023-03-14T06:02:12;101144.94;;;7.87;63.76
30875;BME280;17581;43.222;27.924;2023-03-14T06:04:37;101139.59;;;8.01;63.45
30875;BME280;17581;43.222;27.924;2023-03-14T06:07:03;101136.63;;;8.05;62.70
30875;BME280;17581;43.222;27.924;2023-03-14T06:09:28;101136.53;;;8.21;62.80
30875;BME280;17581;43.222;27.924;2023-03-14T06:11:53;101140.19;;;8.34;62.27
30875;BME280;17581;43.222;27.924;2023-03-14T06:14:19;101131.44;;;8.45;61.63
30875;BME280;17581;43.222;27.924;2023-03-14T06:16:44;101140.63;;;8.55;60.80
30875;BME280;17581;43.222;27.924;2023-03-14T06:19:10;101144.84;;;8.59;60.82
30875;BME280;17581;43.222;27.924;2023-03-14T06:21:36;101140.88;;;8.64;60.37
30875;BME280;17581;43.222;27.924;2023-03-14T06:24:02;101126.69;;;8.62;59.73
30875;BME280;17581;43.222;27.924;2023-03-14T06:26:27;101134.50;;;8.80;59.84
30875;BME280;17581;43.222;27.924;2023-03-14T06:28:53;101142.09;;;9.00;59.61
30875;BME280;17581;43.222;27.924;2023-03-14T06:31:19;101142.78;;;9.16;59.69
30875;BME280;17581;43.222;27.924;2023-03-14T06:33:45;101128.63;;;9.14;58.93
30875;BME280;17581;43.222;27.924;2023-03-14T06:36:10;101129.59;;;9.13;59.04
30875;BME280;17581;43.222;27.924;2023-03-14T06:38:56;101128.41;;;9.17;58.72
30875;BME280;17581;43.222;27.924;2023-03-14T06:41:21;101116.63;;;9.32;58.59
30875;BME280;17581;43.222;27.924;2023-03-14T06:43:49;101131.78;;;9.46;58.34
30875;BME280;17581;43.222;27.924;2023-03-14T06:46:14;101108.28;;;9.49;58.19
30875;BME280;17581;43.222;27.924;2023-03-14T06:48:40;101124.94;;;9.79;57.61
30875;BME280;17581;43.222;27.924;2023-03-14T06:51:06;101106.03;;;9.68;57.41
30875;BME280;17581;43.222;27.924;2023-03-14T06:53:32;101125.81;;;9.80;57.81
30875;BME280;17581;43.222;27.924;2023-03-14T06:55:57;101112.78;;;9.74;58.09
30875;BME280;17581;43.222;27.924;2023-03-14T06:58:23;101114.75;;;9.72;57.36
30875;BME280;17581;43.222;27.924;2023-03-14T07:00:48;101111.09;;;9.48;58.11
30875;BME280;17581;43.222;27.924;2023-03-14T07:03:14;101110.00;;;9.50;58.42
30875;BME280;17581;43.222;27.924;2023-03-14T07:05:39;101105.06;;;9.44;58.80
30875;BME280;17581;43.222;27.924;2023-03-14T07:08:06;101111.63;;;9.53;58.59
30875;BME280;17581;43.222;27.924;2023-03-14T07:10:32;101108.41;;;9.48;58.81
30875;BME280;17581;43.222;27.924;2023-03-14T07:12:57;101103.09;;;9.34;59.25
30875;BME280;17581;43.222;27.924;2023-03-14T07:15:22;101107.69;;;9.19;59.38
30875;BME280;17581;43.222;27.924;2023-03-14T07:17:48;101097.28;;;9.27;59.63
30875;BME280;17581;43.222;27.924;2023-03-14T07:20:13;101086.88;;;9.22;59.46
30875;BME280;17581;43.222;27.924;2023-03-14T07:22:39;101096.88;;;9.33;59.71
30875;BME280;17581;43.222;27.924;2023-03-14T07:25:05;101096.13;;;9.31;59.34
30875;BME280;17581;43.222;27.924;2023-03-14T07:27:30;101092.13;;;9.24;59.72
30875;BME280;17581;43.222;27.924;2023-03-14T07:29:56;101084.44;;;9.32;59.95
30875;BME280;17581;43.222;27.924;2023-03-14T07:32:21;101091.72;;;9.30;59.40
30875;BME280;17581;43.222;27.924;2023-03-14T07:34:47;101101.16;;;9.23;59.65
30875;BME280;17581;43.222;27.924;2023-03-14T07:37:12;101096.56;;;9.38;59.66
30875;BME280;17581;43.222;27.924;2023-03-14T07:39:37;101081.63;;;9.34;59.37
30875;BME280;17581;43.222;27.924;2023-03-14T07:42:03;101097.66;;;9.48;59.56
30875;BME280;17581;43.222;27.924;2023-03-14T07:44:28;101092.16;;;9.37;59.66
30875;BME280;17581;43.222;27.924;2023-03-14T07:46:54;101093.44;;;9.31;59.72
30875;BME280;17581;43.222;27.924;2023-03-14T07:49:19;101086.91;;;9.35;59.72
30875;BME280;17581;43.222;27.924;2023-03-14T07:51:47;101084.31;;;9.34;60.19
30875;BME280;17581;43.222;27.924;2023-03-14T07:54:13;101085.19;;;9.34;59.70
30875;BME280;17581;43.222;27.924;2023-03-14T07:56:38;101081.84;;;9.43;60.26
30875;BME280;17581;43.222;27.924;2023-03-14T07:59:04;101087.00;;;9.34;59.81
30875;BME280;17581;43.222;27.924;2023-03-14T08:01:29;101075.81;;;9.27;60.60
30875;BME280;17581;43.222;27.924;2023-03-14T08:03:55;101068.97;;;9.23;60.40
30875;BME280;17581;43.222;27.924;2023-03-14T08:06:20;101074.00;;;9.27;60.08
30875;BME280;17581;43.222;27.924;2023-03-14T08:08:45;101079.94;;;9.33;60.34
30875;BME280;17581;43.222;27.924;2023-03-14T08:11:11;101073.28;;;9.38;60.45
30875;BME280;17581;43.222;27.924;2023-03-14T08:13:37;101077.78;;;9.50;59.96
30875;BME280;17581;43.222;27.924;2023-03-14T08:16:03;101073.16;;;9.52;59.54
30875;BME280;17581;43.222;27.924;2023-03-14T08:18:29;101071.56;;;9.62;59.72
30875;BME280;17581;43.222;27.924;2023-03-14T08:20:55;101061.84;;;9.72;59.71
30875;BME280;17581;43.222;27.924;2023-03-14T08:23:20;101056.47;;;9.72;59.16
30875;BME280;17581;43.222;27.924;2023-03-14T08:25:48;101059.72;;;9.77;59.22
30875;BME280;17581;43.222;27.924;2023-03-14T08:28:14;101058.31;;;9.84;58.98
30875;BME280;17581;43.222;27.924;2023-03-14T08:30:39;101047.38;;;9.88;58.93
30875;BME280;17581;43.222;27.924;2023-03-14T08:33:05;101055.41;;;9.88;58.30
30875;BME280;17581;43.222;27.924;2023-03-14T08:35:30;101051.97;;;9.85;58.78
30875;BME280;17581;43.222;27.924;2023-03-14T08:37:56;101055.66;;;9.72;58.98
30875;BME280;17581;43.222;27.924;2023-03-14T08:40:21;101057.34;;;9.73;59.48
30875;BME280;17581;43.222;27.924;2023-03-14T08:42:47;101054.78;;;9.59;59.74
30875;BME280;17581;43.222;27.924;2023-03-14T08:45:14;101049.50;;;9.82;59.91
30875;BME280;17581;43.222;27.924;2023-03-14T08:47:41;101044.31;;;10.05;59.62
30875;BME280;17581;43.222;27.924;2023-03-14T08:50:07;101043.66;;;10.14;58.65
30875;BME280;17581;43.222;27.924;2023-03-14T08:52:32;101034.94;;;10.23;59.03
30875;BME280;17581;43.222;27.924;2023-03-14T08:54:58;101035.13;;;10.32;59.05
30875;BME280;17581;43.222;27.924;2023-03-14T08:57:24;101028.69;;;10.46;58.27
30875;BME280;17581;43.222;27.924;2023-03-14T08:59:53;101026.78;;;10.48;58.30
30875;BME280;17581;43.222;27.924;2023-03-14T09:02:20;101024.81;;;10.26;58.80
30875;BME280;17581;43.222;27.924;2023-03-14T09:04:46;101019.75;;;10.22;58.08
30875;BME280;17581;43.222;27.924;2023-03-14T09:07:11;101021.06;;;10.04;59.46
30875;BME280;17581;43.222;27.924;2023-03-14T09:09:36;101013.16;;;10.02;59.27
30875;BME280;17581;43.222;27.924;2023-03-14T09:12:02;101015.25;;;10.10;58.90
30875;BME280;17581;43.222;27.924;2023-03-14T09:14:27;101011.28;;;10.15;58.98
30875;BME280;17581;43.222;27.924;2023-03-14T09:16:54;101002.84;;;10.32;58.87
30875;BME280;17581;43.222;27.924;2023-03-14T09:19:20;100992.66;;;10.25;58.66
30875;BME280;17581;43.222;27.924;2023-03-14T09:21:45;100999.63;;;10.27;59.13
30875;BME280;17581;43.222;27.924;2023-03-14T09:24:10;100991.22;;;10.32;59.50
30875;BME280;17581;43.222;27.924;2023-03-14T09:26:36;100998.66;;;10.52;59.05
30875;BME280;17581;43.222;27.924;2023-03-14T09:29:01;100982.75;;;10.49;58.80
30875;BME280;17581;43.222;27.924;2023-03-14T09:31:27;100986.13;;;10.64;58.62
30875;BME280;17581;43.222;27.924;2023-03-14T09:33:53;100990.44;;;10.77;58.97
30875;BME280;17581;43.222;27.924;2023-03-14T09:36:19;100994.63;;;10.81;58.64
30875;BME280;17581;43.222;27.924;2023-03-14T09:38:44;100994.41;;;10.84;58.40
30875;BME280;17581;43.222;27.924;2023-03-14T09:41:16;100986.81;;;10.89;58.36
30875;BME280;17581;43.222;27.924;2023-03-14T09:43:44;100985.13;;;10.88;58.07
30875;BME280;17581;43.222;27.924;2023-03-14T09:46:12;100985.66;;;10.70;59.33
30875;BME280;17581;43.222;27.924;2023-03-14T09:48:39;100986.97;;;10.64;59.18
30875;BME280;17581;43.222;27.924;2023-03-14T09:51:13;100991.19;;;10.79;60.00
30875;BME280;17581;43.222;27.924;2023-03-14T09:53:44;100978.72;;;10.78;58.96
30875;BME280;17581;43.222;27.924;2023-03-14T09:56:14;100973.03;;;10.94;58.17
30875;BME280;17581;43.222;27.924;2023-03-14T09:58:43;100972.34;;;10.79;57.96
30875;BME280;17581;43.222;27.924;2023-03-14T10:01:13;100977.78;;;10.90;59.06
30875;BME280;17581;43.222;27.924;2023-03-14T10:03:41;100978.56;;;11.04;58.21
30875;BME280;17581;43.222;27.924;2023-03-14T10:06:11;100964.56;;;10.87;57.55
30875;BME280;17581;43.222;27.924;2023-03-14T10:08:40;100965.59;;;10.74;57.63
30875;BME280;17581;43.222;27.924;2023-03-14T10:11:06;100961.09;;;10.74;58.39
30875;BME280;17581;43.222;27.924;2023-03-14T10:13:32;100957.44;;;10.75;58.84
30875;BME280;17581;43.222;27.924;2023-03-14T10:16:03;100959.88;;;10.78;59.18
30875;BME280;17581;43.222;27.924;2023-03-14T10:18:32;100963.69;;;10.76;59.61
30875;BME280;17581;43.222;27.924;2023-03-14T10:21:17;100954.19;;;10.94;59.19
30875;BME280;17581;43.222;27.924;2023-03-14T10:23:46;100943.13;;;10.86;58.15
30875;BME280;17581;43.222;27.924;2023-03-14T10:26:17;100951.19;;;10.75;59.33
30875;BME280;17581;43.222;27.924;2023-03-14T10:29:12;100945.19;;;10.71;58.92
30875;BME280;17581;43.222;27.924;2023-03-14T10:34:16;100925.06;;;10.53;59.58
30875;BME280;17581;43.222;27.924;2023-03-14T10:36:42;100925.50;;;10.71;58.82
30875;BME280;17581;43.222;27.924;2023-03-14T10:39:27;100912.88;;;10.60;58.55
30875;BME280;17581;43.222;27.924;2023-03-14T10:42:16;100906.03;;;10.67;58.44
30875;BME280;17581;43.222;27.924;2023-03-14T10:44:44;100911.72;;;10.86;57.30
30875;BME280;17581;43.222;27.924;2023-03-14T10:47:18;100904.63;;;11.08;58.60
30875;BME280;17581;43.222;27.924;2023-03-14T10:49:44;100894.63;;;11.10;57.06
30875;BME280;17581;43.222;27.924;2023-03-14T10:52:27;100879.69;;;11.17;57.67
30875;BME280;17581;43.222;27.924;2023-03-14T10:55:00;100883.97;;;11.30;56.95
30875;BME280;17581;43.222;27.924;2023-03-14T10:57:26;100877.97;;;11.38;55.90
30875;BME280;17581;43.222;27.924;2023-03-14T10:59:54;100883.72;;;11.56;55.59
30875;BME280;17581;43.222;27.924;2023-03-14T11:07:42;100854.13;;;11.98;53.74
30875;BME280;17581;43.222;27.924;2023-03-14T11:20:59;100826.41;;;11.96;52.59
30875;BME280;17581;43.222;27.924;2023-03-14T11:23:32;100817.88;;;11.80;52.22
30875;BME280;17581;43.222;27.924;2023-03-14T11:28:41;100804.22;;;11.72;51.34
30875;BME280;17581;43.222;27.924;2023-03-14T11:31:33;100802.50;;;11.71;52.07
30875;BME280;17581;43.222;27.924;2023-03-14T11:34:28;100801.59;;;11.82;52.91
30875;BME280;17581;43.222;27.924;2023-03-14T11:39:20;100783.88;;;12.00;53.33
30875;BME280;17581;43.222;27.924;2023-03-14T11:41:49;100780.94;;;12.03;53.07
30875;BME280;17581;43.222;27.924;2023-03-14T11:44:23;100777.84;;;12.08;52.68
30875;BME280;17581;43.222;27.924;2023-03-14T11:46:59;100770.38;;;11.68;52.31
30875;BME280;17581;43.222;27.924;2023-03-14T11:49:35;100758.81;;;11.57;53.65
30875;BME280;17581;43.222;27.924;2023-03-14T11:52:28;100770.47;;;11.46;55.13
30875;BME280;17581;43.222;27.924;2023-03-14T11:55:22;100755.66;;;11.52;53.77
30875;BME280;17581;43.222;27.924;2023-03-14T11:57:56;100753.31;;;11.58;52.63
30875;BME280;17581;43.222;27.924;2023-03-14T12:00:24;100746.91;;;11.59;52.68
30875;BME280;17581;43.222;27.924;2023-03-14T12:03:10;100734.34;;;11.80;53.00
30875;BME280;17581;43.222;27.924;2023-03-14T12:08:38;100726.94;;;11.93;49.37
30875;BME280;17581;43.222;27.924;2023-03-14T12:11:09;100724.00;;;11.96;50.53
30875;BME280;17581;43.222;27.924;2023-03-14T12:13:38;100727.72;;;12.05;48.82
30875;BME280;17581;43.222;27.924;2023-03-14T12:16:31;100719.88;;;11.92;47.86
30875;BME280;17581;43.222;27.924;2023-03-14T12:18:52;100716.50;;;11.68;47.44
30875;BME280;17581;43.222;27.924;2023-03-14T12:21:18;100701.63;;;11.53;51.18
30875;BME280;17581;43.222;27.924;2023-03-14T12:23:54;100704.25;;;11.75;50.76
30875;BME280;17581;43.222;27.924;2023-03-14T12:26:26;100704.16;;;11.97;50.88
30875;BME280;17581;43.222;27.924;2023-03-14T12:45:33;100664.69;;;11.44;51.45
30875;BME280;17581;43.222;27.924;2023-03-14T12:48:14;100669.91;;;11.57;50.68
30875;BME280;17581;43.222;27.924;2023-03-14T12:50:55;100670.50;;;11.60;54.22
30875;BME280;17581;43.222;27.924;2023-03-14T12:59:05;100664.66;;;11.55;55.11
30875;BME280;17581;43.222;27.924;2023-03-14T13:01:33;100649.47;;;11.54;56.04
30875;BME280;17581;43.222;27.924;2023-03-14T13:04:07;100633.66;;;11.61;55.61
30875;BME280;17581;43.222;27.924;2023-03-14T13:06:52;100644.53;;;11.38;56.53
30875;BME280;17581;43.222;27.924;2023-03-14T13:12:00;100634.97;;;11.14;58.13
30875;BME280;17581;43.222;27.924;2023-03-14T13:14:30;100638.66;;;11.13;58.36
30875;BME280;17581;43.222;27.924;2023-03-14T13:16:59;100629.75;;;11.01;58.70
30875;BME280;17581;43.222;27.924;2023-03-14T13:19:30;100634.72;;;11.17;58.54
30875;BME280;17581;43.222;27.924;2023-03-14T13:22:05;100634.22;;;10.91;59.03
30875;BME280;17581;43.222;27.924;2023-03-14T13:24:33;100619.91;;;10.90;59.71
30875;BME280;17581;43.222;27.924;2023-03-14T13:26:59;100631.72;;;10.99;59.33
30875;BME280;17581;43.222;27.924;2023-03-14T13:29:27;100620.50;;;10.94;59.62
30875;BME280;17581;43.222;27.924;2023-03-14T13:31:55;100620.25;;;10.86;60.12
30875;BME280;17581;43.222;27.924;2023-03-14T13:34:32;100618.22;;;10.78;60.04
30875;BME280;17581;43.222;27.924;2023-03-14T13:36:58;100610.00;;;10.80;60.58
30875;BME280;17581;43.222;27.924;2023-03-14T13:39:25;100602.44;;;10.85;59.96
30875;BME280;17581;43.222;27.924;2023-03-14T13:41:54;100596.44;;;10.81;60.05
30875;BME280;17581;43.222;27.924;2023-03-14T13:44:27;100590.34;;;10.68;60.07
30875;BME280;17581;43.222;27.924;2023-03-14T13:47:03;100592.06;;;10.69;60.56
30875;BME280;17581;43.222;27.924;2023-03-14T13:49:31;100583.44;;;10.86;60.38
30875;BME280;17581;43.222;27.924;2023-03-14T13:51:59;100577.56;;;10.92;60.08
30875;BME280;17581;43.222;27.924;2023-03-14T13:54:26;100584.06;;;10.90;59.75
30875;BME280;17581;43.222;27.924;2023-03-14T13:57:02;100577.97;;;10.77;59.42